Bewolking Meer informatie Parkstad Weather Satellite


Neerslagradar Meer informatie Parkstad Rain Snow Radar


Onweersbuien Meer informatie Parkstad Lighntning


24/7 Weercamera Meer informatie Parkstad Weathercam


Natuurbrandrisico
CBI






Het weer levert geen direct gevaar op in Parkstad.    Er zijn geen waarschuwingen afgegeven voor Parkstad (045)

METAR rapporten vliegvelden

   
EHBK - Beek Nederland
Gewijzigd: 12-11-2019 11:55
Bewolking  
Bewolking  
   Wind: ZW 24.1 km/h
Wind: ZW 24.1 km/h
Temperatuur: 5°C
Voelt als: 1°C
Dauwpunt: 3°C
Vochtigheid: 87%
Barometer: 1001 hPa
Satelliet beelden: Bewolking
Zicht: meer dan 10 km
Bewolking: Grotendeels bewolkt 335 m,
Bewolking 427 m
EHBK 121055Z AUTO 22013KT 190V250 9999 BKN011 OVC014 05/03 Q1001 TEMPO 7000 BKN015
EHBK - Maastricht Nederland
Gewijzigd: 12-11-2019 11:55
Bewolking  
Bewolking  
   Wind: ZW 24.1 km/h
Wind: ZW 24.1 km/h
Temperatuur: 5°C
Voelt als: 1°C
Dauwpunt: 3°C
Vochtigheid: 87%
Barometer: 1001 hPa
Satelliet beelden: Bewolking
Zicht: meer dan 10 km
Bewolking: Grotendeels bewolkt 335 m,
Bewolking 427 m
EHBK 121055Z AUTO 22013KT 190V250 9999 BKN011 OVC014 05/03 Q1001 TEMPO 7000 BKN015
EBLG - Liège België
Gewijzigd: 12-11-2019 11:50
Grotendeels bewolkt  
Grotendeels bewolkt  
   Wind: ZW 24.1 km/h
Wind: ZW 24.1 km/h
Temperatuur: 5°C
Voelt als: 1°C
Dauwpunt: 3°C
Vochtigheid: 87%
Barometer: 1001 hPa
Satelliet beelden: Grotendeels bewolkt
Zicht: meer dan 10 km
Bewolking: Licht bewolkt 305 m,
Grotendeels bewolkt 396 m
EBLG 121050Z 22013KT 9999 FEW010 BKN013 05/03 Q1001 NOSIG
EDDK - Köln/Bonn Duitsland
Gewijzigd: 12-11-2019 11:50
Wat regen mogelijk, Grotendeels bewolkt  
Wat regen mogelijk, Grotendeels bewolkt  
   Wind: Zuiden 16.7 km/h
Wind: Zuiden 16.7 km/h
Temperatuur: 7°C
Voelt als: 4°C
Dauwpunt: 3°C
Vochtigheid: 76%
Barometer: 1001 hPa
Satelliet beelden: Grotendeels bewolkt
Zicht: meer dan 10 km
Bewolking: Gedeeltelijk bewolkt 427 m,
Grotendeels bewolkt 793 m
EDDK 121050Z 18009KT 9999 -RA SCT014 BKN026 07/03 Q1001 NOSIG
EDDL - Düsseldorf Duitsland
Gewijzigd: 12-11-2019 11:50
Wat regen mogelijk, Grotendeels bewolkt  
Wat regen mogelijk, Grotendeels bewolkt  
   Wind: ZZW 25.9 km/h
Wind: ZZW 25.9 km/h
Temperatuur: 6°C
Voelt als: 2°C
Dauwpunt: 4°C
Vochtigheid: 87%
Barometer: 1001 hPa
Satelliet beelden: Grotendeels bewolkt
Zicht: 9 km
Bewolking: Licht bewolkt 366 m,
Gedeeltelijk bewolkt 457 m,
Grotendeels bewolkt 610 m
EDDL 121050Z 20014KT 160V230 9000 -RA FEW012 SCT015 BKN020 06/04 Q1001 RERA NOSIG
EHEH - Eindhoven Nederland
Gewijzigd: 12-11-2019 12:02
Grotendeels bewolkt  
Grotendeels bewolkt  
   Wind: ZW 22.2 km/h
Wind: ZW 22.2 km/h
Temperatuur: 6°C
Voelt als: 2°C
Dauwpunt: 3°C
Vochtigheid: 81%
Barometer: 1000 hPa
Satelliet beelden: Grotendeels bewolkt
Zicht: meer dan 10 km
Bewolking: Gedeeltelijk bewolkt 427 m,
Grotendeels bewolkt 488 m,
Grotendeels bewolkt 4572 m
EHEH 121102Z AUTO 22012KT 9999 SCT014 BKN016 BKN150 06/03 Q1000 GRN 21010KT 9999 SCT015 BKN018
ELLX - Luxemburg Luxemburg
Gewijzigd: 12-11-2019 11:50
Wat regen mogelijk, Motregen, Grotendeels bewolkt  
Wat regen mogelijk, Motregen, Grotendeels bewolkt  
   Wind: ZZW 24.1 km/h
Wind: ZZW 24.1 km/h
Temperatuur: 3°C
Voelt als: -2°C
Dauwpunt: 3°C
Vochtigheid: 100%
Barometer: 1003 hPa
Satelliet beelden: Grotendeels bewolkt
Zicht: 3 km
Bewolking: Gedeeltelijk bewolkt 122 m,
Grotendeels bewolkt 183 m
ELLX 121050Z 21013KT 2500 -RADZ SCT004 BKN006 03/03 Q1003 BECMG 7000
EGLL - London England
Gewijzigd: 12-11-2019 11:50
Helder  
Helder  
   Wind: WZW 27.8 km/h
Wind: WZW 27.8 km/h
Temperatuur: 8°C
Voelt als: 4°C
Dauwpunt: 2°C
Vochtigheid: 66%
Barometer: 998 hPa
Satelliet beelden: Helder
Zicht: meer dan 10 km
Bewolking: Helder
EGLL 121050Z AUTO 25015KT 9999 NCD 08/02 Q0998 NOSIG
EBAW - Antwerpen België
Gewijzigd: 12-11-2019 11:50
Gedeeltelijk bewolkt  
Gedeeltelijk bewolkt  
   Wind: ZZW 20.4 km/h
Wind: ZZW 20.4 km/h
Temperatuur: 6°C
Voelt als: 2°C
Dauwpunt: 3°C
Vochtigheid: 81%
Barometer: 1000 hPa
Satelliet beelden: Gedeeltelijk bewolkt
Zicht: meer dan 10 km
Bewolking: Gedeeltelijk bewolkt 366 m
EBAW 121050Z 21011KT 9999 SCT012 06/03 Q1000 NOSIG
EBOS - Oostende België
Gewijzigd: 12-11-2019 11:50
Gedeeltelijk bewolkt  
Gedeeltelijk bewolkt  
   Wind: ZZW 25.9 km/h
Wind: ZZW 25.9 km/h
Temperatuur: 8°C
Voelt als: 4°C
Dauwpunt: 5°C
Vochtigheid: 82%
Barometer: 999 hPa
Satelliet beelden: Gedeeltelijk bewolkt
Zicht: meer dan 10 km
Bewolking: Licht bewolkt 549 m,
Gedeeltelijk bewolkt 762 m
EBOS 121050Z 21014KT 9999 FEW018TCU SCT025 08/05 Q0999 NOSIG
LEAL - La Nucia Spanje
Gewijzigd: 12-11-2019 12:00
Helder  
Helder  
   Wind: WNW 22.2 km/h
Wind: WNW 22.2 km/h
Temperatuur: 17°C
Dauwpunt: 0°C
Vochtigheid: 32%
Barometer: 1013 hPa
Zicht: meer dan 10 km
Bewolking: Helder
LEAL 121100Z 29012KT 260V320 CAVOK 17/00 Q1013 NOSIG
TNCA - Oranjestad Aruba
Gewijzigd: 12-11-2019 12:00
Licht bewolkt  
Licht bewolkt  
   Wind: Oosten 16.7 km/h
Wind: Oosten 16.7 km/h
Temperatuur: 27°C
Gevoelstemperatuur: 30°C
Dauwpunt: 24°C
Vochtigheid: 84%
Barometer: 1009 hPa
Satelliet beelden: Licht bewolkt
Zicht: meer dan 10 km
Bewolking: Licht bewolkt 549 m
TNCA 121100Z 10009KT 9999 FEW018 27/24 Q1009 NOSIG
TNCC - Willemstad Curacao
Gewijzigd: 12-11-2019 12:00
Gedeeltelijk bewolkt  
Gedeeltelijk bewolkt  
   Wind: ZO 14.8 km/h
Wind: ZO 14.8 km/h
Temperatuur: 28°C
Gevoelstemperatuur: 31°C
Dauwpunt: 23°C
Vochtigheid: 74%
Barometer: 1010 hPa
Satelliet beelden: Gedeeltelijk bewolkt
Zicht: meer dan 10 km
Bewolking: Gedeeltelijk bewolkt 549 m
TNCC 121100Z AUTO 13008KT 9999 SCT018 28/23 Q1010 NOSIG=
MTPP - Port au Prince Haitië
Gewijzigd: 12-11-2019 11:59
  
  
   Wind: Oosten 11.1 km/h
Wind: Oosten 11.1 km/h
Temperatuur: 23°C
Dauwpunt: 22°C
Vochtigheid: 94%
Barometer: 1012 hPa
Zicht: 8 km
MTPP 121059Z AUTO 10006KT 8000 ////// 23/22 Q1012 A2988 NOSIG
ENVA - Trondheim Noorwegen
Gewijzigd: 12-11-2019 11:50
Grotendeels bewolkt  
Grotendeels bewolkt  
   Wind: Oosten 9.3 km/h
Wind: Oosten 9.3 km/h
Temperatuur: 5°C
Voelt als: 3°C
Dauwpunt: -2°C
Vochtigheid: 61%
Barometer: 1001 hPa
Satelliet beelden: Grotendeels bewolkt
Zicht: meer dan 10 km
Bewolking: Licht bewolkt 1219 m,
Grotendeels bewolkt 2591 m
ENVA 121050Z 08005KT 030V140 9999 FEW040 BKN085 05/M02 Q1001 NOSIG RMK WIND 670FT VRB02KT
ENBO - Bodø Noorwegen
Gewijzigd: 12-11-2019 11:50
Gedeeltelijk bewolkt  
Gedeeltelijk bewolkt  
   Wind: Oosten 37 km/h<br />Gust to 37 km/h
Wind: Oosten 37 km/h
Gust to 37 km/h
Temperatuur: -1°C
Voelt als: -8°C
Dauwpunt: -9°C
Vochtigheid: 55%
Barometer: 1007 hPa
Satelliet beelden: Gedeeltelijk bewolkt
Zicht: meer dan 10 km
Bewolking: Licht bewolkt 1219 m,
Gedeeltelijk bewolkt 1676 m
ENBO 121050Z 10020G30KT 9999 FEW040 SCT055 M01/M09 Q1007 TEMPO 10020KT
ETNG - Geilenkirchen Duitsland
Gewijzigd: 12-11-2019 11:50
Grotendeels bewolkt  
Grotendeels bewolkt  
   Wind: ZW 20.4 km/h<br />Gust to 20.4 km/h
Wind: ZW 20.4 km/h
Gust to 20.4 km/h
Temperatuur: 6°C
Voelt als: 2°C
Dauwpunt: 3°C
Vochtigheid: 81%
Barometer: 1000 hPa
Satelliet beelden: Grotendeels bewolkt
Zicht: meer dan 10 km
Bewolking: Licht bewolkt 305 m,
Grotendeels bewolkt 518 m
ETNG 121050Z 22011G25KT 9999 FEW010 BKN017 06/03 Q1000 TEMPO -SHRA
 

Script ontwikkeld door  Saratoga-weather.org Aangepast voor de template door  Weerstation Leuven

U vindt ons ook hier:

Het Weer Aktueel

WOW Nederland KNMI

Vereniging voor Weerkunde en Klimatologie

UK Met Office Weather Observation Website (WOW)

WeatherCloud

Weather Underground

Awekas

Weatherlink IP

HAMweather, WeatherForYou, PWS Weather

Citizen Weather Observer Program (CWOP)

Apparatuur in gebruik:

Hardwareleverancier
Weerhuisje

Weerstation
Vantage Pro2+ UV

Weercomputer's
alix3d2 & wl330n

Weerprogramma's
Smartbedded

Satelliet NOAA's
WRX137 & KX137

Satelliet Eumetsat
Ayecka SR1 & Triax

Bliksemdetectie
Boltek StormTracker

Webleverancier
F-Service

Weerhuisje

Vantage Pro2+ UV

alix3d2 & wl330n

Smartbedded

WRX137 & KX137

Ayecka SR1 & Triax

Boltek StormTracker

F-Service